createdAt,value
2023-05-12T00:02:17.757Z,10.73
2023-05-12T00:05:21.259Z,10.61
2023-05-12T00:08:24.922Z,10.64
2023-05-12T00:11:28.509Z,10.71
2023-05-12T00:14:32.065Z,10.59
2023-05-12T00:17:37.048Z,10.54
2023-05-12T00:20:40.606Z,10.46
2023-05-12T00:23:44.528Z,10.64
2023-05-12T00:26:48.040Z,10.46
2023-05-12T00:29:51.581Z,10.47
2023-05-12T00:32:56.795Z,10.35
2023-05-12T00:36:03.676Z,10.50
2023-05-12T00:39:07.195Z,10.42
2023-05-12T00:42:12.061Z,10.30
2023-05-12T00:45:16.076Z,10.26
2023-05-12T00:48:22.228Z,10.29
2023-05-12T00:51:27.912Z,10.37
2023-05-12T00:54:32.951Z,10.14
2023-05-12T00:57:36.646Z,10.25
2023-05-12T01:00:40.131Z,10.08
2023-05-12T01:03:46.556Z,9.93
2023-05-12T01:06:57.500Z,10.08
2023-05-12T01:10:01.387Z,10.09
2023-05-12T01:13:09.023Z,10.04
2023-05-12T01:16:16.160Z,10.01
2023-05-12T01:19:34.602Z,10.17
2023-05-12T01:22:40.662Z,10.21
2023-05-12T01:25:46.279Z,10.06
2023-05-12T01:28:52.776Z,10.00
2023-05-12T01:31:56.944Z,10.09
2023-05-12T01:35:01.035Z,10.22
2023-05-12T01:38:06.296Z,10.19
2023-05-12T01:41:13.220Z,10.18
2023-05-12T01:44:18.148Z,10.21
2023-05-12T01:47:22.250Z,10.12
2023-05-12T01:50:32.952Z,10.16
2023-05-12T01:53:38.052Z,9.91
2023-05-12T01:56:42.200Z,9.78
2023-05-12T01:59:47.325Z,9.57
2023-05-12T02:02:51.014Z,9.24
2023-05-12T02:05:54.454Z,9.14
2023-05-12T02:08:58.361Z,9.17
2023-05-12T02:12:02.487Z,9.29
2023-05-12T02:15:08.418Z,9.40
2023-05-12T02:18:14.117Z,9.14
2023-05-12T02:21:18.922Z,9.14
2023-05-12T02:24:22.533Z,9.09
2023-05-12T02:27:26.215Z,9.08
2023-05-12T02:30:31.645Z,9.15
2023-05-12T02:33:35.050Z,9.08
2023-05-12T02:36:38.591Z,8.88
2023-05-12T02:39:42.465Z,8.99
2023-05-12T02:42:46.094Z,8.98
2023-05-12T02:45:51.953Z,8.86
2023-05-12T02:48:55.392Z,8.93
2023-05-12T02:51:58.932Z,8.79
2023-05-12T02:55:02.332Z,8.71
2023-05-12T02:58:07.217Z,8.65
2023-05-12T03:01:12.678Z,8.61
2023-05-12T03:04:18.003Z,8.48
2023-05-12T03:07:21.992Z,8.55
2023-05-12T03:10:26.967Z,8.52
2023-05-12T03:13:30.396Z,8.51
2023-05-12T03:16:35.446Z,8.59
2023-05-12T03:19:39.220Z,8.56
2023-05-12T03:22:43.219Z,8.52
2023-05-12T03:25:47.837Z,8.56
2023-05-12T03:28:51.505Z,8.49
2023-05-12T03:31:56.409Z,8.46
2023-05-12T03:35:00.342Z,8.45
2023-05-12T03:38:04.276Z,8.36
2023-05-12T03:41:08.263Z,8.45
2023-05-12T03:44:12.514Z,8.40
2023-05-12T03:47:17.658Z,8.36
2023-05-12T03:50:23.006Z,8.41
2023-05-12T03:53:26.587Z,8.33
2023-05-12T03:56:30.079Z,8.36
2023-05-12T03:59:33.741Z,8.35
2023-05-12T04:02:38.679Z,8.44
2023-05-12T04:05:44.597Z,8.43
2023-05-12T04:08:48.301Z,8.54
2023-05-12T04:11:51.766Z,8.46
2023-05-12T04:14:55.186Z,8.52
2023-05-12T04:17:59.989Z,8.59
2023-05-12T04:21:04.414Z,8.47
2023-05-12T04:24:08.091Z,8.52
2023-05-12T04:27:14.169Z,8.64
2023-05-12T04:30:18.069Z,8.86
2023-05-12T04:33:23.423Z,8.85
2023-05-12T04:36:27.370Z,9.14
2023-05-12T04:39:31.404Z,9.16
2023-05-12T04:42:35.511Z,9.21
2023-05-12T04:45:39.444Z,9.34
2023-05-12T04:48:44.636Z,9.55
2023-05-12T04:51:48.114Z,9.63
2023-05-12T04:54:51.729Z,9.82
2023-05-12T04:57:55.303Z,9.97
2023-05-12T05:00:59.157Z,10.10
2023-05-12T05:04:04.604Z,10.09
2023-05-12T05:07:08.088Z,10.28
2023-05-12T05:10:12.134Z,10.45
2023-05-12T05:13:18.952Z,10.55
2023-05-12T05:16:22.615Z,10.83
2023-05-12T05:19:40.364Z,10.93
2023-05-12T05:22:51.296Z,11.16
2023-05-12T05:25:56.860Z,11.22
2023-05-12T05:29:00.769Z,11.42
2023-05-12T05:32:04.631Z,11.76
2023-05-12T05:35:10.455Z,11.57
2023-05-12T05:38:19.053Z,11.87
2023-05-12T05:41:23.084Z,11.89
2023-05-12T05:44:26.748Z,11.99
2023-05-12T05:47:32.847Z,12.04
2023-05-12T05:50:38.159Z,12.27
2023-05-12T05:53:42.214Z,12.63
2023-05-12T05:56:47.053Z,12.75
2023-05-12T05:59:52.487Z,12.94
2023-05-12T06:02:56.182Z,13.16
2023-05-12T06:06:01.511Z,13.13
2023-05-12T06:09:05.622Z,13.37
2023-05-12T06:12:10.417Z,13.40
2023-05-12T06:15:18.261Z,13.48
2023-05-12T06:18:23.974Z,13.43
2023-05-12T06:21:32.323Z,13.86
2023-05-12T06:24:35.830Z,13.85
2023-05-12T06:27:39.311Z,14.16
2023-05-12T06:30:42.925Z,14.20
2023-05-12T06:33:46.326Z,14.41
2023-05-12T06:36:53.150Z,14.48
2023-05-12T06:39:57.912Z,14.87
2023-05-12T06:43:02.052Z,14.78
2023-05-12T06:46:07.151Z,15.23
2023-05-12T06:49:12.014Z,15.45
2023-05-12T06:52:16.900Z,15.20
2023-05-12T06:55:21.176Z,15.58
2023-05-12T06:58:24.796Z,15.73
2023-05-12T07:01:28.641Z,15.70
2023-05-12T07:04:32.241Z,15.79
2023-05-12T07:07:37.293Z,15.97
2023-05-12T07:10:43.012Z,15.94
2023-05-12T07:13:46.525Z,15.91
2023-05-12T07:16:50.103Z,16.26
2023-05-12T07:19:53.850Z,16.19
2023-05-12T07:22:58.654Z,16.23
2023-05-12T07:26:03.094Z,16.22
2023-05-12T07:29:07.491Z,16.54
2023-05-12T07:32:11.190Z,16.46
2023-05-12T07:35:15.078Z,16.41
2023-05-12T07:38:20.011Z,16.68
2023-05-12T07:41:24.652Z,16.58
2023-05-12T07:44:28.674Z,16.97
2023-05-12T07:47:32.387Z,17.25
2023-05-12T07:50:36.277Z,16.88
2023-05-12T07:53:41.757Z,16.99
2023-05-12T07:56:45.260Z,16.99
2023-05-12T07:59:49.422Z,17.10
2023-05-12T08:02:54.167Z,17.36
2023-05-12T08:05:58.438Z,17.44
2023-05-12T08:09:03.322Z,17.19
2023-05-12T08:12:07.508Z,17.46
2023-05-12T08:15:11.677Z,17.98
2023-05-12T08:18:15.173Z,18.06
2023-05-12T08:21:19.297Z,17.89
2023-05-12T08:24:24.056Z,17.94
2023-05-12T08:27:27.437Z,18.16
2023-05-12T08:30:31.471Z,18.10
2023-05-12T08:33:36.236Z,18.69
2023-05-12T08:36:40.121Z,18.60
2023-05-12T08:39:44.985Z,18.72
2023-05-12T08:42:58.337Z,18.74
2023-05-12T08:46:03.399Z,18.67
2023-05-12T08:49:12.663Z,18.74
2023-05-12T08:52:22.769Z,18.33
2023-05-12T08:55:32.644Z,18.89
2023-05-12T08:58:42.042Z,19.10
2023-05-12T09:01:49.356Z,19.24
2023-05-12T09:04:55.038Z,19.60
2023-05-12T09:07:59.941Z,19.38
2023-05-12T09:11:05.378Z,19.77
2023-05-12T09:14:14.153Z,19.70
2023-05-12T09:17:17.944Z,19.41
2023-05-12T09:20:30.929Z,19.49
2023-05-12T09:23:35.865Z,20.16
2023-05-12T09:26:49.456Z,20.18
2023-05-12T09:29:59.118Z,19.56
2023-05-12T09:33:07.791Z,20.21
2023-05-12T09:36:11.510Z,20.21
2023-05-12T09:39:15.354Z,19.99
2023-05-12T09:42:24.053Z,20.22
2023-05-12T09:45:27.590Z,20.76
2023-05-12T09:48:31.626Z,20.36
2023-05-12T09:51:35.476Z,20.49
2023-05-12T09:54:41.465Z,20.57
2023-05-12T09:57:47.973Z,20.83
2023-05-12T10:04:01.160Z,21.24
2023-05-12T10:07:04.930Z,21.07
2023-05-12T10:10:12.151Z,20.32
2023-05-12T10:13:17.454Z,20.77
2023-05-12T10:16:23.001Z,20.92
2023-05-12T10:19:27.400Z,21.09
2023-05-12T10:22:33.526Z,21.25
2023-05-12T10:25:37.270Z,21.02
2023-05-12T10:28:43.692Z,20.59
2023-05-12T10:31:49.092Z,20.89
2023-05-12T10:34:53.059Z,21.27
2023-05-12T10:37:56.698Z,21.28
2023-05-12T10:41:02.842Z,19.82
2023-05-12T10:44:07.862Z,20.97
2023-05-12T10:47:15.436Z,21.60
2023-05-12T10:50:28.487Z,21.45
2023-05-12T10:53:48.317Z,22.07
2023-05-12T10:57:00.383Z,22.51
2023-05-12T11:00:06.017Z,22.42
2023-05-12T11:03:14.798Z,21.59
2023-05-12T11:06:21.312Z,21.37
2023-05-12T11:09:27.141Z,21.37
2023-05-12T11:12:33.276Z,21.73
2023-05-12T11:15:39.108Z,22.06
2023-05-12T11:18:42.494Z,21.99
2023-05-12T11:21:46.316Z,21.00
2023-05-12T11:24:51.468Z,20.90
2023-05-12T11:27:55.775Z,21.48
2023-05-12T11:31:01.035Z,21.82
2023-05-12T11:34:12.574Z,21.91
2023-05-12T11:37:21.117Z,22.61
2023-05-12T11:40:25.175Z,21.73
2023-05-12T11:43:30.258Z,20.84
2023-05-12T11:46:35.176Z,21.98
2023-05-12T11:49:48.443Z,21.98
2023-05-12T11:52:52.839Z,22.57
2023-05-12T11:56:00.596Z,22.39
2023-05-12T11:59:04.403Z,22.63
2023-05-12T12:02:09.309Z,21.34
2023-05-12T12:05:19.163Z,21.29
2023-05-12T12:08:22.773Z,22.31
2023-05-12T12:11:28.503Z,23.34
2023-05-12T12:14:33.409Z,22.97
2023-05-12T12:17:38.328Z,22.40
2023-05-12T12:20:42.187Z,20.99
2023-05-12T12:23:51.375Z,21.65
2023-05-12T12:26:55.497Z,22.21
2023-05-12T12:29:59.077Z,22.55
2023-05-12T12:33:04.288Z,21.65
2023-05-12T12:36:10.699Z,20.85
2023-05-12T12:39:14.802Z,20.51
2023-05-12T12:42:18.492Z,19.95
2023-05-12T12:45:22.744Z,20.14
2023-05-12T12:48:28.643Z,20.81
2023-05-12T12:51:45.173Z,22.54
2023-05-12T12:54:49.968Z,22.88
2023-05-12T12:57:54.014Z,22.69
2023-05-12T13:00:57.406Z,22.93
2023-05-12T13:04:02.461Z,21.71
2023-05-12T13:07:06.839Z,20.48
2023-05-12T13:10:10.814Z,20.91
2023-05-12T13:13:14.565Z,21.70
2023-05-12T13:16:18.551Z,22.66
2023-05-12T13:19:23.618Z,22.44
2023-05-12T13:22:27.641Z,22.39
2023-05-12T13:25:32.329Z,21.44
2023-05-12T13:28:35.983Z,22.08
2023-05-12T13:31:41.672Z,21.37
2023-05-12T13:34:47.269Z,20.76
2023-05-12T13:40:54.781Z,21.48
2023-05-12T13:43:58.166Z,21.71
2023-05-12T13:47:02.501Z,21.83
2023-05-12T13:50:09.081Z,21.85
2023-05-12T13:53:13.310Z,20.98
2023-05-12T13:56:17.869Z,20.57
2023-05-12T13:59:23.045Z,20.50
2023-05-12T14:02:27.167Z,20.18
2023-05-12T14:05:32.506Z,20.37
2023-05-12T14:08:36.489Z,20.13
2023-05-12T14:11:39.999Z,20.04
2023-05-12T14:14:49.757Z,20.29
2023-05-12T14:17:53.484Z,20.17
2023-05-12T14:20:59.268Z,19.86
2023-05-12T14:24:02.891Z,20.24
2023-05-12T14:27:07.256Z,19.85
2023-05-12T14:30:12.224Z,19.55
2023-05-12T14:33:15.939Z,19.34
2023-05-12T14:36:21.282Z,19.39
2023-05-12T14:39:25.935Z,19.29
2023-05-12T14:42:35.892Z,19.86
2023-05-12T14:45:39.428Z,20.24
2023-05-12T14:48:43.106Z,19.31
2023-05-12T14:51:48.593Z,18.82
2023-05-12T14:54:52.530Z,19.02
2023-05-12T14:57:56.121Z,20.20
2023-05-12T15:01:02.120Z,20.47
2023-05-12T15:04:06.233Z,20.58
2023-05-12T15:07:11.340Z,21.20
2023-05-12T15:10:15.217Z,21.33
2023-05-12T15:13:20.480Z,20.66
2023-05-12T15:16:26.291Z,20.35
2023-05-12T15:19:29.948Z,20.54
2023-05-12T15:22:35.283Z,20.20
2023-05-12T15:25:40.997Z,20.13
2023-05-12T15:28:44.692Z,20.07
2023-05-12T15:31:49.032Z,19.97
2023-05-12T15:34:52.784Z,20.18
2023-05-12T15:37:57.683Z,20.04
2023-05-12T15:41:01.102Z,20.14
2023-05-12T15:44:04.598Z,20.00
2023-05-12T15:47:08.975Z,20.47
2023-05-12T15:50:13.099Z,20.11
2023-05-12T15:53:18.001Z,19.93
2023-05-12T15:56:21.545Z,19.80
2023-05-12T15:59:25.051Z,19.79
2023-05-12T16:02:28.752Z,19.93
2023-05-12T16:05:34.183Z,19.93
2023-05-12T16:08:39.016Z,19.93
2023-05-12T16:11:43.069Z,19.83
2023-05-12T16:14:46.548Z,19.63
2023-05-12T16:17:50.027Z,19.70
2023-05-12T16:20:53.866Z,19.35
2023-05-12T16:23:59.041Z,19.13
2023-05-12T16:27:02.958Z,18.90
2023-05-12T16:30:07.922Z,18.84
2023-05-12T16:33:12.050Z,18.84
2023-05-12T16:36:17.135Z,18.45
2023-05-12T16:39:22.893Z,18.48
2023-05-12T16:42:26.861Z,18.54
2023-05-12T16:45:30.530Z,18.51
2023-05-12T16:48:37.185Z,18.33
2023-05-12T16:51:40.814Z,18.10
2023-05-12T16:54:47.437Z,18.09
2023-05-12T16:57:51.288Z,18.13
2023-05-12T17:00:55.567Z,17.93
2023-05-12T17:03:59.475Z,17.93
2023-05-12T17:07:03.301Z,17.78
2023-05-12T17:10:11.848Z,17.75
2023-05-12T17:13:16.881Z,17.64
2023-05-12T17:16:23.837Z,17.58
2023-05-12T17:19:27.354Z,17.46
2023-05-12T17:22:32.386Z,17.46
2023-05-12T17:25:37.781Z,17.41
2023-05-12T17:28:41.429Z,17.28
2023-05-12T17:31:44.994Z,17.12
2023-05-12T17:34:51.529Z,17.17
2023-05-12T17:37:55.818Z,17.14
2023-05-12T17:41:00.872Z,17.00
2023-05-12T17:44:04.273Z,17.04
2023-05-12T17:47:08.095Z,16.97
2023-05-12T17:50:14.098Z,16.81
2023-05-12T17:53:17.733Z,16.70
2023-05-12T17:56:22.714Z,16.60
2023-05-12T17:59:26.320Z,16.55
2023-05-12T18:02:29.998Z,16.43
2023-05-12T18:05:34.893Z,16.44
2023-05-12T18:08:39.837Z,16.30
2023-05-12T18:11:44.837Z,16.22
2023-05-12T18:14:48.277Z,16.12
2023-05-12T18:17:53.029Z,16.11
2023-05-12T18:20:56.654Z,15.98
2023-05-12T18:24:00.262Z,15.77
2023-05-12T18:27:06.588Z,15.70
2023-05-12T18:30:11.294Z,15.62
2023-05-12T18:33:15.061Z,15.51
2023-05-12T18:36:18.826Z,15.27
2023-05-12T18:39:22.313Z,15.29
2023-05-12T18:42:27.463Z,15.52
2023-05-12T18:45:30.973Z,15.10
2023-05-12T18:48:34.406Z,15.00
2023-05-12T18:51:38.570Z,14.91
2023-05-12T18:54:42.127Z,14.88
2023-05-12T18:57:47.007Z,14.70
2023-05-12T19:00:50.933Z,14.78
2023-05-12T19:03:54.408Z,14.67
2023-05-12T19:06:58.135Z,14.53
2023-05-12T19:10:01.798Z,14.58
2023-05-12T19:13:06.911Z,14.54
2023-05-12T19:16:10.460Z,14.41
2023-05-12T19:19:14.439Z,14.24
2023-05-12T19:22:18.106Z,14.34
2023-05-12T19:25:22.331Z,14.28
2023-05-12T19:28:27.580Z,14.41
2023-05-12T19:31:31.652Z,14.04
2023-05-12T19:34:35.367Z,13.96
2023-05-12T19:37:39.205Z,13.85
2023-05-12T19:40:42.954Z,13.65
2023-05-12T19:43:47.832Z,13.52
2023-05-12T19:46:51.820Z,13.60
2023-05-12T19:49:55.827Z,13.55
2023-05-12T19:52:59.913Z,13.36
2023-05-12T19:56:03.864Z,13.14
2023-05-12T19:59:08.729Z,13.09
2023-05-12T20:02:15.570Z,12.93
2023-05-12T20:05:19.540Z,12.77
2023-05-12T20:08:23.829Z,12.37
2023-05-12T20:11:27.262Z,12.32
2023-05-12T20:14:32.992Z,12.32
2023-05-12T20:17:36.796Z,12.51
2023-05-12T20:20:40.234Z,12.50
2023-05-12T20:23:44.670Z,12.45
2023-05-12T20:26:49.276Z,12.52
2023-05-12T20:29:54.769Z,12.37
2023-05-12T20:32:58.638Z,12.46
2023-05-12T20:36:02.100Z,12.38
2023-05-12T20:39:06.284Z,12.42
2023-05-12T20:42:10.924Z,12.29
2023-05-12T20:45:16.645Z,12.30
2023-05-12T20:48:20.160Z,12.37
2023-05-12T20:51:23.716Z,12.29
2023-05-12T20:54:27.284Z,12.26
2023-05-12T20:57:30.754Z,12.10
2023-05-12T21:00:35.976Z,12.04
2023-05-12T21:03:39.835Z,12.00
2023-05-12T21:06:43.182Z,11.92
2023-05-12T21:09:47.056Z,11.88
2023-05-12T21:12:50.629Z,11.79
2023-05-12T21:15:55.556Z,11.86
2023-05-12T21:18:59.086Z,11.74
2023-05-12T21:22:03.004Z,11.65
2023-05-12T21:25:07.940Z,11.49
2023-05-12T21:28:11.656Z,11.45
2023-05-12T21:31:16.771Z,11.46
2023-05-12T21:34:20.486Z,11.40
2023-05-12T21:37:24.038Z,11.46
2023-05-12T21:40:27.427Z,11.40
2023-05-12T21:43:30.926Z,11.28
2023-05-12T21:46:37.051Z,11.37
2023-05-12T21:49:40.534Z,11.02
2023-05-12T21:52:45.157Z,11.18
2023-05-12T21:55:48.694Z,10.92
2023-05-12T21:58:52.176Z,10.90
2023-05-12T22:01:57.493Z,10.88
2023-05-12T22:05:01.046Z,10.62
2023-05-12T22:08:06.464Z,10.77
2023-05-12T22:11:10.209Z,10.75
2023-05-12T22:14:14.209Z,10.74
2023-05-12T22:17:19.149Z,10.77
2023-05-12T22:20:23.411Z,10.79
2023-05-12T22:23:27.012Z,10.70
2023-05-12T22:26:30.498Z,10.66
2023-05-12T22:29:34.310Z,10.75
2023-05-12T22:32:39.394Z,10.81
2023-05-12T22:35:42.935Z,10.70
2023-05-12T22:38:46.379Z,10.71
2023-05-12T22:41:49.901Z,10.64
2023-05-12T22:44:57.894Z,10.56
2023-05-12T22:48:07.923Z,10.56
2023-05-12T22:51:12.001Z,10.36
2023-05-12T22:54:16.323Z,10.28
2023-05-12T22:57:20.509Z,10.29
2023-05-12T23:00:24.710Z,10.27
2023-05-12T23:03:29.745Z,10.16
2023-05-12T23:06:33.822Z,10.05
2023-05-12T23:09:38.137Z,10.12
2023-05-12T23:12:42.020Z,10.06
2023-05-12T23:15:45.834Z,10.02
2023-05-12T23:18:51.075Z,10.09
2023-05-12T23:21:54.714Z,10.16
2023-05-12T23:24:58.647Z,10.01
2023-05-12T23:28:04.958Z,10.02
2023-05-12T23:31:08.561Z,10.10
2023-05-12T23:34:13.423Z,9.97
2023-05-12T23:37:16.885Z,9.83
2023-05-12T23:40:21.461Z,9.78
2023-05-12T23:43:25.160Z,9.77
2023-05-12T23:46:28.834Z,9.60
2023-05-12T23:49:33.852Z,9.64
2023-05-12T23:52:37.338Z,9.45
2023-05-12T23:55:40.915Z,9.52
2023-05-12T23:58:53.890Z,9.49
